createdAt,value
2022-08-26T00:00:04.111Z,24.33
2022-08-26T00:01:29.072Z,24.32
2022-08-26T00:02:31.470Z,24.31
2022-08-26T00:03:34.796Z,24.31
2022-08-26T00:04:36.323Z,24.31
2022-08-26T00:05:39.232Z,24.32
2022-08-26T00:06:42.600Z,24.32
2022-08-26T00:07:48.947Z,24.33
2022-08-26T00:08:51.101Z,24.34
2022-08-26T00:09:54.317Z,24.35
2022-08-26T00:10:56.992Z,24.36
2022-08-26T00:12:01.610Z,24.37
2022-08-26T00:13:04.388Z,24.37
2022-08-26T00:14:06.156Z,24.38
2022-08-26T00:15:10.306Z,24.38
2022-08-26T00:16:11.901Z,24.37
2022-08-26T00:17:13.957Z,24.34
2022-08-26T00:18:22.029Z,24.34
2022-08-26T00:19:24.190Z,24.34
2022-08-26T00:20:27.411Z,24.34
2022-08-26T00:21:29.805Z,24.35
2022-08-26T00:22:32.026Z,24.35
2022-08-26T00:23:34.199Z,24.34
2022-08-26T00:24:36.066Z,24.34
2022-08-26T00:25:38.375Z,24.34
2022-08-26T00:26:44.179Z,24.34
2022-08-26T00:27:46.855Z,24.35
2022-08-26T00:28:49.370Z,24.34
2022-08-26T00:29:51.727Z,24.33
2022-08-26T00:30:53.586Z,24.34
2022-08-26T00:31:55.349Z,24.32
2022-08-26T00:32:57.558Z,24.31
2022-08-26T00:33:59.443Z,24.31
2022-08-26T00:35:01.417Z,24.31
2022-08-26T00:36:04.699Z,24.31
2022-08-26T00:37:09.828Z,24.33
2022-08-26T00:38:14.346Z,24.32
2022-08-26T00:39:15.868Z,24.32
2022-08-26T00:40:20.468Z,24.34
2022-08-26T00:41:22.141Z,24.35
2022-08-26T00:42:23.872Z,24.32
2022-08-26T00:43:26.137Z,24.32
2022-08-26T00:44:27.699Z,24.32
2022-08-26T00:45:52.892Z,24.32
2022-08-26T00:46:59.144Z,24.31
2022-08-26T00:48:02.915Z,24.30
2022-08-26T00:49:12.290Z,24.28
2022-08-26T00:50:23.515Z,24.28
2022-08-26T00:51:29.928Z,24.29
2022-08-26T00:52:32.067Z,24.28
2022-08-26T00:53:37.030Z,24.30
2022-08-26T00:54:44.638Z,24.29
2022-08-26T00:55:49.259Z,24.30
2022-08-26T00:56:52.317Z,24.30
2022-08-26T00:57:54.355Z,24.29
2022-08-26T00:58:58.289Z,24.30
2022-08-26T01:00:01.899Z,24.31
2022-08-26T01:01:03.849Z,24.31
2022-08-26T01:02:05.803Z,24.31
2022-08-26T01:03:12.705Z,24.31
2022-08-26T01:04:15.196Z,24.32
2022-08-26T01:05:18.062Z,24.32
2022-08-26T01:06:20.278Z,24.32
2022-08-26T01:07:27.377Z,24.33
2022-08-26T01:08:29.455Z,24.33
2022-08-26T01:09:31.725Z,24.33
2022-08-26T01:10:33.447Z,24.35
2022-08-26T01:11:35.965Z,24.35
2022-08-26T01:12:40.461Z,24.35
2022-08-26T01:13:42.319Z,24.35
2022-08-26T01:14:46.555Z,24.35
2022-08-26T01:15:50.767Z,24.35
2022-08-26T01:16:52.283Z,24.35
2022-08-26T01:17:53.895Z,24.36
2022-08-26T01:18:59.802Z,24.35
2022-08-26T01:20:07.138Z,24.35
2022-08-26T01:21:11.824Z,24.35
2022-08-26T01:22:23.185Z,24.33
2022-08-26T01:23:41.912Z,24.33
2022-08-26T01:24:47.725Z,24.32
2022-08-26T01:25:54.130Z,24.31
2022-08-26T01:26:57.375Z,24.31
2022-08-26T01:28:01.558Z,24.30
2022-08-26T01:29:04.710Z,24.30
2022-08-26T01:30:07.050Z,24.29
2022-08-26T01:32:48.469Z,24.28
2022-08-26T01:33:54.340Z,24.28
2022-08-26T01:34:56.602Z,24.29
2022-08-26T01:35:58.395Z,24.28
2022-08-26T01:37:02.907Z,24.27
2022-08-26T01:38:04.522Z,24.26
2022-08-26T01:39:07.238Z,24.27
2022-08-26T01:40:11.968Z,24.28
2022-08-26T01:41:19.796Z,24.27
2022-08-26T01:42:28.863Z,24.28
2022-08-26T01:43:32.531Z,24.29
2022-08-26T01:44:38.698Z,24.28
2022-08-26T01:45:41.067Z,24.28
2022-08-26T01:46:44.321Z,24.28
2022-08-26T01:47:49.390Z,24.28
2022-08-26T01:49:00.747Z,24.28
2022-08-26T01:50:05.845Z,24.28
2022-08-26T01:51:09.248Z,24.27
2022-08-26T01:52:13.454Z,24.27
2022-08-26T01:53:18.094Z,24.26
2022-08-26T01:54:20.478Z,24.26
2022-08-26T01:55:29.317Z,24.27
2022-08-26T01:56:36.688Z,24.27
2022-08-26T01:57:39.769Z,24.28
2022-08-26T01:58:44.040Z,24.28
2022-08-26T01:59:47.497Z,24.29
2022-08-26T02:00:49.276Z,24.30
2022-08-26T02:01:52.742Z,24.30
2022-08-26T02:03:15.539Z,24.30
2022-08-26T02:04:28.649Z,24.30
2022-08-26T02:05:30.286Z,24.31
2022-08-26T02:06:31.981Z,24.31
2022-08-26T02:07:34.225Z,24.32
2022-08-26T02:08:38.339Z,24.32
2022-08-26T02:09:41.716Z,24.32
2022-08-26T02:10:43.569Z,24.32
2022-08-26T02:11:45.741Z,24.32
2022-08-26T02:12:47.422Z,24.30
2022-08-26T02:14:10.985Z,24.30
2022-08-26T02:15:13.649Z,24.29
2022-08-26T02:16:17.206Z,24.28
2022-08-26T02:17:21.329Z,24.28
2022-08-26T02:18:24.722Z,24.28
2022-08-26T02:19:28.785Z,24.28
2022-08-26T02:20:30.841Z,24.29
2022-08-26T02:21:32.735Z,24.30
2022-08-26T02:22:34.803Z,24.30
2022-08-26T02:23:36.989Z,24.30
2022-08-26T02:24:50.578Z,24.33
2022-08-26T02:25:55.437Z,24.33
2022-08-26T02:26:57.526Z,24.33
2022-08-26T02:28:00.126Z,24.34
2022-08-26T02:29:04.774Z,24.34
2022-08-26T02:30:26.155Z,24.34
2022-08-26T02:31:29.730Z,24.34
2022-08-26T02:32:31.487Z,24.35
2022-08-26T02:33:33.219Z,24.34
2022-08-26T02:34:35.698Z,24.34
2022-08-26T02:35:39.013Z,24.34
2022-08-26T02:36:40.589Z,24.34
2022-08-26T02:37:42.628Z,24.34
2022-08-26T02:38:45.096Z,24.34
2022-08-26T02:39:47.987Z,24.36
2022-08-26T02:40:49.706Z,24.35
2022-08-26T02:41:52.830Z,24.34
2022-08-26T02:42:56.985Z,24.36
2022-08-26T02:43:59.376Z,24.35
2022-08-26T02:45:01.538Z,24.35
2022-08-26T02:46:03.302Z,24.36
2022-08-26T02:47:06.071Z,24.34
2022-08-26T02:48:09.806Z,24.34
2022-08-26T02:49:11.847Z,24.34
2022-08-26T02:50:14.060Z,24.34
2022-08-26T02:51:15.617Z,24.36
2022-08-26T02:52:18.166Z,24.36
2022-08-26T02:53:24.929Z,24.37
2022-08-26T02:54:27.274Z,24.38
2022-08-26T02:55:29.039Z,24.38
2022-08-26T02:56:32.529Z,24.38
2022-08-26T02:57:34.263Z,24.38
2022-08-26T02:58:36.023Z,24.39
2022-08-26T02:59:39.397Z,24.39
2022-08-26T03:00:53.409Z,24.39
2022-08-26T03:01:56.126Z,24.40
2022-08-26T03:02:58.176Z,24.41
2022-08-26T03:04:00.327Z,24.41
2022-08-26T03:05:02.949Z,24.42
2022-08-26T03:06:04.668Z,24.43
2022-08-26T03:07:06.320Z,24.42
2022-08-26T03:08:11.182Z,24.42
2022-08-26T03:09:13.991Z,24.42
2022-08-26T03:10:21.151Z,24.42
2022-08-26T03:11:23.364Z,24.42
2022-08-26T03:12:25.729Z,24.43
2022-08-26T03:13:27.391Z,24.43
2022-08-26T03:14:29.316Z,24.43
2022-08-26T03:15:31.812Z,24.44
2022-08-26T03:16:34.924Z,24.43
2022-08-26T03:17:37.393Z,24.44
2022-08-26T03:18:41.833Z,24.45
2022-08-26T03:19:43.294Z,24.45
2022-08-26T03:20:45.856Z,24.46
2022-08-26T03:21:47.574Z,24.46
2022-08-26T03:22:52.657Z,24.46
2022-08-26T03:23:54.294Z,24.46
2022-08-26T03:25:01.119Z,24.46
2022-08-26T03:26:05.326Z,24.46
2022-08-26T03:27:07.539Z,24.47
2022-08-26T03:28:09.711Z,24.47
2022-08-26T03:29:29.950Z,24.46
2022-08-26T03:30:45.343Z,24.48
2022-08-26T03:31:47.630Z,24.48
2022-08-26T03:32:49.418Z,24.49
2022-08-26T03:33:52.166Z,24.49
2022-08-26T03:34:54.261Z,24.50
2022-08-26T03:35:55.928Z,24.49
2022-08-26T03:36:58.446Z,24.50
2022-08-26T03:38:01.112Z,24.51
2022-08-26T03:39:03.678Z,24.51
2022-08-26T03:40:07.458Z,24.52
2022-08-26T03:41:11.254Z,24.53
2022-08-26T03:42:14.299Z,24.54
2022-08-26T03:43:16.667Z,24.54
2022-08-26T03:44:18.438Z,24.52
2022-08-26T03:45:20.130Z,24.52
2022-08-26T03:46:22.209Z,24.52
2022-08-26T03:47:24.259Z,24.49
2022-08-26T03:48:25.937Z,24.47
2022-08-26T03:49:28.995Z,24.47
2022-08-26T03:50:34.093Z,24.46
2022-08-26T03:51:38.837Z,24.46
2022-08-26T03:52:43.894Z,24.45
2022-08-26T03:53:46.649Z,24.43
2022-08-26T03:54:48.134Z,24.43
2022-08-26T03:55:51.974Z,24.42
2022-08-26T03:56:53.689Z,24.44
2022-08-26T03:57:55.222Z,24.45
2022-08-26T03:58:56.879Z,24.45
2022-08-26T03:59:58.797Z,24.46
2022-08-26T04:01:00.708Z,24.46
2022-08-26T04:02:02.485Z,24.46
2022-08-26T04:03:04.178Z,24.45
2022-08-26T04:04:06.440Z,24.45
2022-08-26T04:05:08.299Z,24.46
2022-08-26T04:06:10.062Z,24.46
2022-08-26T04:07:11.758Z,24.47
2022-08-26T04:08:13.251Z,24.46
2022-08-26T04:09:19.366Z,24.47
2022-08-26T04:10:29.104Z,24.48
2022-08-26T04:11:34.243Z,24.49
2022-08-26T04:12:37.277Z,24.50
2022-08-26T04:13:38.813Z,24.51
2022-08-26T04:14:40.516Z,24.52
2022-08-26T04:15:42.067Z,24.53
2022-08-26T04:16:43.960Z,24.54
2022-08-26T04:17:45.666Z,24.55
2022-08-26T04:18:47.406Z,24.57
2022-08-26T04:19:48.950Z,24.58
2022-08-26T04:20:50.595Z,24.61
2022-08-26T04:21:52.764Z,24.61
2022-08-26T04:22:54.804Z,24.63
2022-08-26T04:23:56.551Z,24.64
2022-08-26T04:24:59.957Z,24.65
2022-08-26T04:26:01.837Z,24.65
2022-08-26T04:27:03.457Z,24.67
2022-08-26T04:28:05.319Z,24.67
2022-08-26T04:29:12.102Z,24.67
2022-08-26T04:30:13.715Z,24.68
2022-08-26T04:31:16.843Z,24.68
2022-08-26T04:32:18.509Z,24.70
2022-08-26T04:33:32.211Z,24.71
2022-08-26T04:34:34.842Z,24.70
2022-08-26T04:35:36.849Z,24.71
2022-08-26T04:36:40.507Z,24.71
2022-08-26T04:37:43.532Z,24.71
2022-08-26T04:38:45.759Z,24.72
2022-08-26T04:39:50.462Z,24.73
2022-08-26T04:40:51.983Z,24.75
2022-08-26T04:41:57.851Z,24.76
2022-08-26T04:43:00.025Z,24.76
2022-08-26T04:44:02.108Z,24.77
2022-08-26T04:45:05.679Z,24.78
2022-08-26T04:46:13.658Z,24.79
2022-08-26T04:47:15.848Z,24.79
2022-08-26T04:48:17.493Z,24.81
2022-08-26T04:49:20.077Z,24.81
2022-08-26T04:50:23.104Z,24.80
2022-08-26T04:51:28.318Z,24.81
2022-08-26T04:52:29.995Z,24.82
2022-08-26T04:53:32.716Z,24.84
2022-08-26T04:54:35.453Z,24.85
2022-08-26T04:55:42.721Z,24.87
2022-08-26T04:56:48.858Z,24.88
2022-08-26T04:57:51.772Z,24.89
2022-08-26T04:58:53.588Z,24.89
2022-08-26T04:59:55.224Z,24.90
2022-08-26T05:00:57.843Z,24.92
2022-08-26T05:02:00.984Z,24.92
2022-08-26T05:03:03.463Z,24.93
2022-08-26T05:04:05.914Z,24.93
2022-08-26T05:05:11.238Z,24.93
2022-08-26T05:06:13.394Z,24.93
2022-08-26T05:07:15.310Z,24.93
2022-08-26T05:08:20.498Z,24.93
2022-08-26T05:09:22.126Z,24.95
2022-08-26T05:10:24.538Z,24.95
2022-08-26T05:11:26.811Z,24.97
2022-08-26T05:12:29.411Z,24.98
2022-08-26T05:13:31.052Z,24.99
2022-08-26T05:14:32.978Z,25.00
2022-08-26T05:15:35.910Z,25.01
2022-08-26T05:16:37.651Z,25.03
2022-08-26T05:17:41.844Z,25.05
2022-08-26T05:18:44.933Z,25.06
2022-08-26T05:19:50.035Z,25.07
2022-08-26T05:20:54.642Z,25.08
2022-08-26T05:21:56.672Z,25.08
2022-08-26T05:23:00.155Z,25.09
2022-08-26T05:24:01.801Z,25.12
2022-08-26T05:25:03.937Z,25.13
2022-08-26T05:26:07.450Z,25.14
2022-08-26T05:27:11.661Z,25.15
2022-08-26T05:28:14.627Z,25.18
2022-08-26T05:29:16.683Z,25.19
2022-08-26T05:30:18.562Z,25.20
2022-08-26T05:31:22.629Z,25.22
2022-08-26T05:32:24.235Z,25.24
2022-08-26T05:33:25.866Z,25.27
2022-08-26T05:34:30.384Z,25.29
2022-08-26T05:35:33.629Z,25.32
2022-08-26T05:36:36.110Z,25.33
2022-08-26T05:37:38.682Z,25.35
2022-08-26T05:38:40.828Z,25.38
2022-08-26T05:39:48.828Z,25.41
2022-08-26T05:40:53.240Z,25.43
2022-08-26T05:41:54.982Z,25.45
2022-08-26T05:42:56.622Z,25.49
2022-08-26T05:43:59.336Z,25.52
2022-08-26T05:45:01.058Z,25.55
2022-08-26T05:46:05.863Z,25.59
2022-08-26T05:47:07.811Z,25.62
2022-08-26T05:48:10.379Z,25.67
2022-08-26T05:49:13.291Z,25.71
2022-08-26T05:50:15.452Z,25.75
2022-08-26T05:51:17.734Z,25.80
2022-08-26T05:52:19.659Z,25.83
2022-08-26T05:53:22.587Z,25.87
2022-08-26T05:54:25.817Z,25.90
2022-08-26T05:55:27.387Z,25.92
2022-08-26T05:56:29.374Z,25.94
2022-08-26T05:57:30.927Z,25.98
2022-08-26T05:58:33.329Z,26.01
2022-08-26T05:59:34.922Z,26.04
2022-08-26T06:00:39.761Z,26.09
2022-08-26T06:01:43.557Z,26.14
2022-08-26T06:02:48.387Z,26.19
2022-08-26T06:03:51.208Z,26.24
2022-08-26T06:04:52.922Z,26.28
2022-08-26T06:05:54.774Z,26.31
2022-08-26T06:06:56.809Z,26.34
2022-08-26T06:08:10.637Z,26.38
2022-08-26T06:09:12.201Z,26.39
2022-08-26T06:10:32.348Z,26.40
2022-08-26T06:11:34.332Z,26.41
2022-08-26T06:12:36.814Z,26.43
2022-08-26T06:13:39.375Z,26.44
2022-08-26T06:14:41.086Z,26.45
2022-08-26T06:15:45.476Z,26.47
2022-08-26T06:16:47.396Z,26.49
2022-08-26T06:17:48.906Z,26.51
2022-08-26T06:18:51.703Z,26.52
2022-08-26T06:19:53.234Z,26.52
2022-08-26T06:20:57.858Z,26.54
2022-08-26T06:22:23.323Z,26.56
2022-08-26T06:23:46.555Z,26.60
2022-08-26T06:25:06.760Z,26.66
2022-08-26T06:26:10.874Z,26.69
2022-08-26T06:27:13.303Z,26.69
2022-08-26T06:28:14.848Z,26.70
2022-08-26T06:29:24.519Z,26.73
2022-08-26T06:30:26.775Z,26.77
2022-08-26T06:31:28.933Z,26.80
2022-08-26T06:32:31.005Z,26.83
2022-08-26T06:33:32.906Z,26.86
2022-08-26T06:34:34.592Z,26.88
2022-08-26T06:35:37.285Z,26.92
2022-08-26T06:36:40.982Z,26.95
2022-08-26T06:37:46.651Z,26.98
2022-08-26T06:38:48.650Z,27.02
2022-08-26T06:39:51.192Z,27.05
2022-08-26T06:40:54.184Z,27.09
2022-08-26T06:41:56.427Z,27.13
2022-08-26T06:42:59.938Z,27.16
2022-08-26T06:44:02.367Z,27.19
2022-08-26T06:45:05.138Z,27.22
2022-08-26T06:46:09.804Z,27.24
2022-08-26T06:47:13.547Z,27.26
2022-08-26T06:48:16.617Z,27.29
2022-08-26T06:49:26.641Z,27.33
2022-08-26T06:50:29.310Z,27.38
2022-08-26T06:51:32.544Z,27.40
2022-08-26T06:52:36.295Z,27.43
2022-08-26T06:53:39.168Z,27.45
2022-08-26T06:54:42.983Z,27.49
2022-08-26T06:55:45.721Z,27.52
2022-08-26T06:56:47.866Z,27.56
2022-08-26T06:57:50.155Z,27.59
2022-08-26T06:58:51.833Z,27.62
2022-08-26T06:59:53.454Z,27.66
2022-08-26T07:00:56.167Z,27.71
2022-08-26T07:02:00.264Z,27.75
2022-08-26T07:03:05.367Z,27.78
2022-08-26T07:04:10.527Z,27.82
2022-08-26T07:05:12.630Z,27.86
2022-08-26T07:06:14.746Z,27.89
2022-08-26T07:07:18.360Z,27.92
2022-08-26T07:08:23.690Z,27.95
2022-08-26T07:09:27.617Z,27.97
2022-08-26T07:10:29.187Z,28.00
2022-08-26T07:11:35.062Z,27.99
2022-08-26T07:12:37.001Z,27.99
2022-08-26T07:13:38.598Z,28.00
2022-08-26T07:14:40.175Z,28.00
2022-08-26T07:15:45.578Z,28.01
2022-08-26T07:16:47.601Z,28.01
2022-08-26T07:17:49.232Z,28.01
2022-08-26T07:18:53.022Z,27.99
2022-08-26T07:19:54.642Z,27.99
2022-08-26T07:20:56.224Z,27.99
2022-08-26T07:21:58.656Z,27.98
2022-08-26T07:23:00.306Z,28.00
2022-08-26T07:24:03.713Z,28.00
2022-08-26T07:25:07.408Z,28.00
2022-08-26T07:26:10.725Z,27.99
2022-08-26T07:27:13.727Z,27.99
2022-08-26T07:28:16.273Z,27.98
2022-08-26T07:29:17.952Z,28.00
2022-08-26T07:30:19.666Z,28.00
2022-08-26T07:31:22.502Z,28.01
2022-08-26T07:32:24.160Z,28.03
2022-08-26T07:33:25.813Z,28.05
2022-08-26T07:34:27.413Z,28.06
2022-08-26T07:35:29.021Z,28.06
2022-08-26T07:36:30.863Z,28.07
2022-08-26T07:37:35.432Z,28.09
2022-08-26T07:38:38.228Z,28.11
2022-08-26T07:39:41.128Z,28.11
2022-08-26T07:40:42.712Z,28.11
2022-08-26T07:41:46.575Z,28.13
2022-08-26T07:42:48.198Z,28.13
2022-08-26T07:43:53.149Z,28.13
2022-08-26T07:44:54.754Z,28.13
2022-08-26T07:45:56.404Z,28.12
2022-08-26T07:46:58.832Z,28.12
2022-08-26T07:48:00.457Z,28.12
2022-08-26T07:49:06.397Z,28.12
2022-08-26T07:50:08.364Z,28.13
2022-08-26T07:51:10.145Z,28.14
2022-08-26T07:52:12.302Z,28.15
2022-08-26T07:53:14.709Z,28.17
2022-08-26T07:54:20.036Z,28.20
2022-08-26T07:55:27.249Z,28.20
2022-08-26T07:56:29.009Z,28.21
2022-08-26T07:57:31.439Z,28.22
2022-08-26T07:58:33.009Z,28.23
2022-08-26T07:59:34.859Z,28.25
2022-08-26T08:00:36.412Z,28.26
2022-08-26T08:01:38.152Z,28.29
2022-08-26T08:02:40.442Z,28.32
2022-08-26T08:03:42.151Z,28.36
2022-08-26T08:04:43.868Z,28.39
2022-08-26T08:05:46.390Z,28.43
2022-08-26T08:06:48.658Z,28.47
2022-08-26T08:07:53.499Z,28.49
2022-08-26T08:09:03.336Z,28.51
2022-08-26T08:10:11.310Z,28.53
2022-08-26T08:11:13.384Z,28.57
2022-08-26T08:12:16.705Z,28.59
2022-08-26T08:13:19.477Z,28.63
2022-08-26T08:14:22.360Z,28.67
2022-08-26T08:15:27.186Z,28.71
2022-08-26T08:16:32.380Z,28.76
2022-08-26T08:17:34.965Z,28.82
2022-08-26T08:18:36.555Z,28.87
2022-08-26T08:19:39.176Z,28.92
2022-08-26T08:20:44.685Z,28.98
2022-08-26T08:21:49.266Z,29.03
2022-08-26T08:22:51.356Z,29.09
2022-08-26T08:23:54.798Z,29.14
2022-08-26T08:24:56.311Z,29.20
2022-08-26T08:26:03.934Z,29.25
2022-08-26T08:27:05.554Z,29.30
2022-08-26T08:28:07.143Z,29.35
2022-08-26T08:29:09.199Z,29.38
2022-08-26T08:30:13.840Z,29.41
2022-08-26T08:32:49.651Z,29.49
2022-08-26T08:33:51.470Z,29.52
2022-08-26T08:34:53.718Z,29.55
2022-08-26T08:35:56.132Z,29.56
2022-08-26T08:36:58.001Z,29.59
2022-08-26T08:37:59.806Z,29.62
2022-08-26T08:39:01.341Z,29.63
2022-08-26T08:40:03.968Z,29.66
2022-08-26T08:41:05.703Z,29.67
2022-08-26T08:42:07.443Z,29.71
2022-08-26T08:43:37.781Z,29.74
2022-08-26T08:44:41.215Z,29.78
2022-08-26T08:45:53.088Z,29.81
2022-08-26T08:46:58.067Z,29.83
2022-08-26T08:48:13.046Z,29.85
2022-08-26T08:49:17.103Z,29.88
2022-08-26T08:50:22.538Z,29.88
2022-08-26T08:51:26.996Z,29.90
2022-08-26T08:52:28.644Z,29.91
2022-08-26T08:53:36.943Z,29.91
2022-08-26T08:54:38.555Z,29.91
2022-08-26T08:55:42.961Z,29.91
2022-08-26T08:56:54.945Z,29.87
2022-08-26T08:58:05.958Z,29.83
2022-08-26T08:59:23.991Z,29.82
2022-08-26T09:00:30.393Z,29.80
2022-08-26T09:01:41.559Z,29.80
2022-08-26T09:02:49.125Z,29.79
2022-08-26T09:04:17.355Z,29.78
2022-08-26T09:05:21.900Z,29.76
2022-08-26T09:06:24.816Z,29.75
2022-08-26T09:07:39.806Z,29.75
2022-08-26T09:08:42.828Z,29.75
2022-08-26T09:09:46.483Z,29.75
2022-08-26T09:10:59.711Z,29.75
2022-08-26T09:12:02.079Z,29.75
2022-08-26T09:13:06.613Z,29.74
2022-08-26T09:14:08.984Z,29.73
2022-08-26T09:15:15.844Z,29.72
2022-08-26T09:16:24.132Z,29.71
2022-08-26T09:17:25.655Z,29.72
2022-08-26T09:18:29.991Z,29.74
2022-08-26T09:19:39.604Z,29.75
2022-08-26T09:20:46.014Z,29.77
2022-08-26T09:21:55.175Z,29.77
2022-08-26T09:22:58.603Z,29.75
2022-08-26T09:24:00.234Z,29.76
2022-08-26T09:25:04.083Z,29.77
2022-08-26T09:26:15.217Z,29.78
2022-08-26T09:27:40.446Z,29.81
2022-08-26T09:28:44.811Z,29.86
2022-08-26T09:29:50.275Z,29.92
2022-08-26T09:31:11.688Z,29.97
2022-08-26T09:32:15.439Z,30.03
2022-08-26T09:33:17.987Z,30.07
2022-08-26T09:34:27.360Z,30.09
2022-08-26T09:35:35.071Z,30.12
2022-08-26T09:36:41.469Z,30.15
2022-08-26T09:38:52.412Z,30.21
2022-08-26T09:39:55.065Z,30.24
2022-08-26T09:41:01.473Z,30.27
2022-08-26T09:42:05.778Z,30.31
2022-08-26T09:43:22.275Z,30.36
2022-08-26T09:44:24.764Z,30.43
2022-08-26T09:45:27.443Z,30.48
2022-08-26T09:46:29.696Z,30.52
2022-08-26T09:47:52.046Z,30.56
2022-08-26T09:48:53.819Z,30.62
2022-08-26T09:50:18.168Z,30.58
2022-08-26T09:51:22.908Z,30.46
2022-08-26T09:52:27.222Z,30.33
2022-08-26T09:53:30.907Z,30.23
2022-08-26T09:54:33.702Z,30.14
2022-08-26T09:55:36.689Z,30.15
2022-08-26T09:56:38.635Z,30.23
2022-08-26T09:57:46.451Z,30.34
2022-08-26T09:58:48.560Z,30.45
2022-08-26T09:59:50.456Z,30.53
2022-08-26T10:00:55.119Z,30.58
2022-08-26T10:02:14.558Z,30.65
2022-08-26T10:03:23.487Z,30.76
2022-08-26T10:04:30.138Z,30.86
2022-08-26T10:05:38.699Z,30.94
2022-08-26T10:07:01.236Z,31.04
2022-08-26T10:08:21.683Z,31.14
2022-08-26T10:09:25.163Z,31.23
2022-08-26T10:10:31.482Z,31.22
2022-08-26T10:11:42.496Z,31.15
2022-08-26T10:12:47.105Z,31.04
2022-08-26T10:13:54.648Z,30.93
2022-08-26T10:14:59.176Z,30.83
2022-08-26T10:16:21.301Z,30.76
2022-08-26T10:17:33.466Z,30.71
2022-08-26T10:18:45.400Z,30.73
2022-08-26T10:19:57.227Z,30.75
2022-08-26T10:21:07.314Z,30.75
2022-08-26T10:22:18.065Z,30.76
2022-08-26T10:23:24.211Z,30.82
2022-08-26T10:24:31.211Z,30.91
2022-08-26T10:25:34.220Z,31.02
2022-08-26T10:27:05.139Z,31.12
2022-08-26T10:28:11.449Z,31.23
2022-08-26T10:29:25.417Z,31.29
2022-08-26T10:30:32.079Z,31.26
2022-08-26T10:31:38.458Z,31.17
2022-08-26T10:32:46.254Z,31.07
2022-08-26T10:33:47.891Z,30.99
2022-08-26T10:34:49.422Z,30.92
2022-08-26T10:35:55.944Z,30.87
2022-08-26T10:37:16.665Z,30.84
2022-08-26T10:38:28.701Z,30.82
2022-08-26T10:39:36.456Z,30.81
2022-08-26T10:40:57.809Z,30.81
2022-08-26T10:42:05.818Z,30.82
2022-08-26T10:43:15.142Z,30.83
2022-08-26T10:44:17.910Z,30.86
2022-08-26T10:45:26.124Z,30.88
2022-08-26T10:46:33.182Z,30.92
2022-08-26T10:47:44.269Z,30.96
2022-08-26T10:48:53.221Z,31.02
2022-08-26T10:49:59.986Z,31.09
2022-08-26T10:51:05.770Z,31.16
2022-08-26T10:52:19.505Z,31.20
2022-08-26T10:53:36.326Z,31.27
2022-08-26T10:54:43.134Z,31.35
2022-08-26T10:55:56.806Z,31.43
2022-08-26T10:57:04.182Z,31.51
2022-08-26T10:58:26.439Z,31.61
2022-08-26T10:59:36.834Z,31.71
2022-08-26T11:01:01.684Z,31.80
2022-08-26T11:02:24.705Z,31.87
2022-08-26T11:03:26.942Z,31.93
2022-08-26T11:04:48.152Z,31.99
2022-08-26T11:06:08.915Z,32.07
2022-08-26T11:07:29.963Z,32.12
2022-08-26T11:08:33.820Z,32.17
2022-08-26T11:09:44.463Z,32.17
2022-08-26T11:10:56.161Z,32.20
2022-08-26T11:12:05.153Z,32.24
2022-08-26T11:13:12.069Z,32.29
2022-08-26T11:14:28.652Z,32.33
2022-08-26T11:15:31.429Z,32.42
2022-08-26T11:16:42.954Z,32.46
2022-08-26T11:17:45.238Z,32.51
2022-08-26T11:18:48.274Z,32.57
2022-08-26T11:20:02.210Z,32.61
2022-08-26T11:21:24.599Z,32.66
2022-08-26T11:22:34.149Z,32.72
2022-08-26T11:23:37.345Z,32.77
2022-08-26T11:24:52.028Z,32.81
2022-08-26T11:26:00.905Z,32.84
2022-08-26T11:27:02.547Z,32.84
2022-08-26T11:28:05.379Z,32.81
2022-08-26T11:29:12.257Z,32.78
2022-08-26T11:30:15.252Z,32.80
2022-08-26T11:31:23.472Z,32.90
2022-08-26T11:32:34.004Z,33.03
2022-08-26T11:33:51.011Z,33.12
2022-08-26T11:34:54.903Z,33.20
2022-08-26T11:35:58.000Z,33.23
2022-08-26T11:37:00.993Z,33.23
2022-08-26T11:38:11.652Z,33.21
2022-08-26T11:39:23.831Z,33.17
2022-08-26T11:40:31.458Z,33.16
2022-08-26T11:41:33.916Z,33.19
2022-08-26T11:42:41.688Z,33.27
2022-08-26T11:43:46.873Z,33.39
2022-08-26T11:44:49.300Z,33.51
2022-08-26T11:45:59.353Z,33.64
2022-08-26T11:47:00.958Z,33.78
2022-08-26T11:48:18.248Z,33.94
2022-08-26T11:49:20.270Z,34.17
2022-08-26T11:50:25.531Z,34.29
2022-08-26T11:51:27.714Z,34.45
2022-08-26T11:52:30.617Z,34.63
2022-08-26T11:53:36.551Z,34.83
2022-08-26T11:54:38.257Z,35.04
2022-08-26T11:55:42.758Z,35.26
2022-08-26T11:56:46.308Z,35.45
2022-08-26T11:57:52.820Z,35.62
2022-08-26T11:58:56.209Z,35.76
2022-08-26T11:59:58.774Z,35.90
2022-08-26T12:01:06.155Z,36.01
2022-08-26T12:02:16.512Z,36.15
2022-08-26T12:03:40.020Z,36.30
2022-08-26T12:04:45.801Z,36.48
2022-08-26T12:05:49.148Z,36.64
2022-08-26T12:06:51.463Z,36.80
2022-08-26T12:07:55.059Z,36.98
2022-08-26T12:08:59.184Z,37.15
2022-08-26T12:10:03.186Z,37.31
2022-08-26T12:11:06.956Z,37.42
2022-08-26T12:12:09.946Z,37.53
2022-08-26T12:13:25.147Z,37.65
2022-08-26T12:14:28.123Z,37.84
2022-08-26T12:15:31.596Z,37.99
2022-08-26T12:16:37.270Z,38.14
2022-08-26T12:17:41.272Z,38.30
2022-08-26T12:18:44.879Z,38.45
2022-08-26T12:19:47.352Z,38.62
2022-08-26T12:20:53.387Z,38.79
2022-08-26T12:21:58.554Z,38.86
2022-08-26T12:23:00.982Z,38.86
2022-08-26T12:24:03.447Z,38.88
2022-08-26T12:25:06.561Z,38.94
2022-08-26T12:26:26.666Z,39.02
2022-08-26T12:27:34.651Z,39.05
2022-08-26T12:28:43.814Z,39.07
2022-08-26T12:29:59.086Z,39.06
2022-08-26T12:31:02.073Z,39.02
2022-08-26T12:32:12.875Z,39.05
2022-08-26T12:33:22.302Z,39.09
2022-08-26T12:34:27.477Z,39.21
2022-08-26T12:35:31.410Z,39.19
2022-08-26T12:36:42.698Z,39.21
2022-08-26T12:37:53.470Z,39.33
2022-08-26T12:38:58.117Z,39.41
2022-08-26T12:40:18.775Z,39.48
2022-08-26T12:41:39.037Z,39.63
2022-08-26T12:42:41.473Z,39.85
2022-08-26T12:43:44.601Z,40.02
2022-08-26T12:44:54.159Z,40.10
2022-08-26T12:45:59.189Z,40.25
2022-08-26T12:47:09.737Z,40.38
2022-08-26T12:48:16.136Z,40.59
2022-08-26T12:49:17.973Z,40.80
2022-08-26T12:50:19.645Z,40.94
2022-08-26T12:51:23.277Z,41.06
2022-08-26T12:52:32.151Z,41.12
2022-08-26T12:53:35.251Z,41.21
2022-08-26T12:54:56.970Z,41.36
2022-08-26T12:56:02.853Z,41.56
2022-08-26T12:57:11.593Z,41.69
2022-08-26T12:58:13.137Z,41.74
2022-08-26T12:59:21.515Z,41.80
2022-08-26T13:00:29.068Z,41.91
2022-08-26T13:01:43.894Z,42.03
2022-08-26T13:02:45.838Z,42.20
2022-08-26T13:03:48.207Z,42.32
2022-08-26T13:05:00.737Z,42.47
2022-08-26T13:06:08.858Z,42.63
2022-08-26T13:07:23.611Z,42.79
2022-08-26T13:08:27.180Z,42.93
2022-08-26T13:09:29.742Z,43.01
2022-08-26T13:10:36.064Z,43.04
2022-08-26T13:11:40.536Z,43.04
2022-08-26T13:12:42.051Z,43.01
2022-08-26T13:13:45.087Z,43.03
2022-08-26T13:14:47.192Z,43.05
2022-08-26T13:15:49.386Z,43.04
2022-08-26T13:16:51.716Z,42.99
2022-08-26T13:17:53.295Z,42.91
2022-08-26T13:19:02.630Z,42.74
2022-08-26T13:20:04.823Z,42.53
2022-08-26T13:21:08.428Z,42.32
2022-08-26T13:22:11.837Z,42.12
2022-08-26T13:23:14.127Z,42.00
2022-08-26T13:24:18.399Z,41.94
2022-08-26T13:25:20.191Z,41.94
2022-08-26T13:26:21.846Z,41.98
2022-08-26T13:27:25.641Z,42.06
2022-08-26T13:28:27.323Z,42.17
2022-08-26T13:29:28.965Z,42.19
2022-08-26T13:30:32.701Z,42.23
2022-08-26T13:31:35.456Z,42.29
2022-08-26T13:32:37.238Z,42.34
2022-08-26T13:33:40.046Z,42.41
2022-08-26T13:34:49.370Z,42.50
2022-08-26T13:35:54.139Z,42.66
2022-08-26T13:36:56.174Z,42.80
2022-08-26T13:37:58.427Z,42.92
2022-08-26T13:39:00.251Z,42.99
2022-08-26T13:40:04.112Z,43.05
2022-08-26T13:41:05.807Z,43.15
2022-08-26T13:42:08.403Z,43.27
2022-08-26T13:43:10.997Z,43.42
2022-08-26T13:44:13.014Z,43.58
2022-08-26T13:45:14.675Z,43.69
2022-08-26T13:46:16.360Z,43.80
2022-08-26T13:47:19.937Z,43.84
2022-08-26T13:48:23.517Z,43.93
2022-08-26T13:49:25.434Z,44.03
2022-08-26T13:50:27.162Z,44.12
2022-08-26T13:51:29.353Z,44.18
2022-08-26T13:52:31.310Z,44.25
2022-08-26T13:53:33.297Z,44.29
2022-08-26T13:54:35.584Z,44.36
2022-08-26T13:55:37.996Z,44.43
2022-08-26T13:56:39.723Z,44.40
2022-08-26T13:57:41.542Z,44.40
2022-08-26T13:58:43.848Z,44.43
2022-08-26T13:59:48.169Z,44.47
2022-08-26T14:00:49.801Z,44.50